aviador You're here:

EPKT Decoded Metar

KATOWICE in POLAND
Report Time2018-07-20 18:30:00
UTC Time2018-07-20 18:38:11
Flight Rules vfr VFR
Wind310° at 04 kt
W.Decomp.*RWY 27: 3.2 kt HW 2.4 kt RCW
W.Rank310° ranks 21
Current wind is below 310° avg. (6.8)
Visibility9999 m
Phenomena:N/A
Clouds:N/A
Expected CloudBase > 4,000 ft AGL from Temp-Dew spread
CeilingNone
Temp22°C (ISA +9)
Dew Point12°C (53% RH)
AAT21.2°C
QNH1013 hPa
Density Alt2,152 ft
Elevation932 ft
Report Wrong Elevation
Raw Report
METAR EPKT 201830Z 31004KT CAVOK 22/12 Q1013=

Extra information for EPKT:More info

Metar Taf Metar & Taf Last 4 Metars F.Rules Stats Wind Profile Meteogram Temp Stats Airport Information Weather charts Add Link Nearby VenuesMetar ALERT Operation Metar Decoded Social comments